KREO/REO METAR and TAF weather

Enter ICAO airport designator
Station Type Date Time Source
KREO METAR 2019/12/08 16:52 UTC NOAA

KREO 081652Z AUTO 00000KT 04/01 A2994 RMK AO1 SLP145 T00440011


Station Type Date Time Source
KREO Decoded METAR 2019/12/08 16:52 UTC NOAA

ROME, OR, United States (KREO) 42-35N 117-52W 1235M
Dec 08, 2019 - 11:52 AM EST / 2019.12.08 1652 UTC
Wind: Calm:0
Temperature: 39.9 F (4.4 C)
Dew Point: 34.0 F (1.1 C)
Relative Humidity: 79%
Pressure (altimeter): 29.94 in. Hg (1013 hPa)
ob: KREO 081652Z AUTO 00000KT 04/01 A2994 RMK AO1 SLP145 T00440011
cycle: 17

Station Type Date Time Source
KREO TAF UTC NOAA

Error!

Example: see airport list